KAKQ/AKQ METAR and TAF weather

Enter ICAO airport designator
Station Type Date Time Source
KAKQ METAR 2019/08/17 10:44 UTC NOAA

KAKQ 171044Z AUTO 00000KT 1/4SM -RA FG VV002 23/22 A2998 RMK AO2 P0000 T02280217 $


Station Type Date Time Source
KAKQ Decoded METAR 2019/08/17 10:44 UTC NOAA

Station name not available
Aug 17, 2019 - 06:44 AM EDT / 2019.08.17 1044 UTC
Wind: Calm:0
Visibility: 1/4 mile(s):0
Sky conditions: obscured
Weather: light rain; fog
Precipitation last hour: A trace
Temperature: 73.0 F (22.8 C)
Dew Point: 71.1 F (21.7 C)
Relative Humidity: 93%
Pressure (altimeter): 29.98 in. Hg (1015 hPa)
ob: KAKQ 171044Z AUTO 00000KT 1/4SM -RA FG VV002 23/22 A2998 RMK AO2 P0000 T02280217
cycle: 10

Station Type Date Time Source
KAKQ TAF UTC NOAA

Error!

Example: see airport list